Weather History for KBVY - June, 2012

Change the Weather History Date:

Monday, June 4, 2012

  Actual Average Record
Temperature  
Mean Temperature 50 °F -  
Max Temperature 52 °F 68 °F 88 °F (1981)
Min Temperature 48 °F 49 °F 39 °F (2002)
Degree Days  
Heating Degree Days 15    
Moisture  
Dew Point 48 °F    
Average Humidity 92    
Maximum Humidity 100    
Minimum Humidity 86    
Precipitation  
Precipitation 0.71 in - - ()
Sea Level Pressure  
Sea Level Pressure 29.70 in    
Wind  
Wind Speed 13 mph (NNE)    
Max Wind Speed 22 mph    
Max Gust Speed 38 mph    
Visibility 4 miles    
Events Rain    
Averages and records for this station are not official NWS values.
T = Trace of Precipitation, MM = Missing Value Source: NWS Daily Summary

Daily Weather History Graph

Daily Weather History Graph

Search for Another Location

Airport or City:

Trip Planner

Search our weather history database for the weather conditions in past years. The results will help you decide how hot, cold, wet, or windy it might be!

Date:

Astronomy

Jun. 04, 2012 Rise Set
Actual Time 5:07 AM EDT 8:17 PM EDT
Civil Twilight 4:32 AM EDT 8:51 PM EDT
Nautical Twilight 3:48 AM EDT 9:35 PM EDT
Astronomical Twilight 2:55 AM EDT 10:29 PM EDT
Moon 8:43 PM EDT (6/4) 5:11 AM EDT (6/4)
Length of Visible Light 16h 18m
Length of Day
15h 10m
Full, 100% of the Moon is Illuminated
Jun 4
Full
Jun 11
Last Quarter
Jun 19
New
Jun 26
First Quarter
Jul 3
Full

Hourly Weather History & Observations

Time (EDT) Temp. Dew Point Humidity Pressure Visibility Wind Dir Wind Speed Gust Speed Precip Events Conditions
12:53 AM 52.0 °F 48.0 °F 86% 29.62 in 10.0 mi NNE 11.5 mph 21.9 mph N/A   Overcast
1:53 AM 51.1 °F 48.0 °F 89% 29.61 in 6.0 mi NNE 16.1 mph 27.6 mph 0.01 in Rain Light Rain
2:19 AM 50.0 °F 48.2 °F 94% 29.62 in 2.5 mi NNE 13.8 mph 21.9 mph 0.01 in Rain Light Rain
2:53 AM 50.0 °F 48.0 °F 93% 29.60 in 2.5 mi NNE 12.7 mph 25.3 mph 0.03 in Rain Light Rain
3:09 AM 50.0 °F 48.2 °F 94% 29.61 in 3.0 mi NNE 11.5 mph 21.9 mph 0.00 in Rain Light Rain
3:53 AM 50.0 °F 48.0 °F 93% 29.59 in 3.0 mi NNE 12.7 mph 21.9 mph 0.02 in Rain Light Rain
4:53 AM 50.0 °F 48.0 °F 93% 29.59 in 3.0 mi North 12.7 mph 24.2 mph 0.02 in Rain Light Rain
5:36 AM 50.0 °F 48.2 °F 94% 29.61 in 2.5 mi NNE 11.5 mph 27.6 mph 0.02 in Rain Light Rain
5:46 AM 50.0 °F 48.2 °F 94% 29.61 in 3.0 mi NNE 16.1 mph 24.2 mph 0.02 in Rain Light Rain
5:53 AM 50.0 °F 48.2 °F 94% 29.61 in 2.5 mi NNE 11.5 mph 24.2 mph N/A Rain Light Rain
6:03 AM 50.0 °F 48.2 °F 94% 29.61 in 1.5 mi NNE 15.0 mph 24.2 mph 0.00 in Rain Light Rain
6:30 AM 50.0 °F 48.2 °F 94% 29.62 in 2.0 mi NNE 12.7 mph 24.2 mph 0.02 in Rain Light Rain
6:39 AM 50.0 °F 48.2 °F 94% 29.62 in 1.8 mi NNE 15.0 mph 25.3 mph 0.02 in Rain Light Rain
6:53 AM 50.0 °F 48.0 °F 93% 29.62 in 1.5 mi NNE 11.5 mph 24.2 mph 0.03 in Rain Light Rain
7:53 AM 50.0 °F 48.0 °F 93% 29.62 in 1.2 mi NE 13.8 mph 21.9 mph 0.10 in Rain Light Rain
8:53 AM 50.0 °F 48.0 °F 93% 29.64 in 1.2 mi NE 13.8 mph 23.0 mph 0.08 in Rain Light Rain
9:02 AM 50.0 °F 48.2 °F 94% 29.65 in 2.0 mi NE 16.1 mph 28.8 mph 0.00 in Rain Light Rain
9:04 AM 50.0 °F 48.2 °F 94% 29.65 in 1.8 mi NNE 8.1 mph 28.8 mph 0.00 in Rain Light Rain
9:13 AM 50.0 °F 48.2 °F 94% 29.65 in 2.0 mi NE 20.7 mph 28.8 mph 0.01 in Rain Light Rain
9:17 AM 50.0 °F 48.2 °F 94% 29.65 in 4.0 mi NE 13.8 mph 28.8 mph 0.01 in Rain Light Rain
9:28 AM 50.0 °F 48.2 °F 94% 29.65 in 1.8 mi NE 17.3 mph 25.3 mph 0.01 in Rain Light Rain
9:45 AM 50.0 °F 48.2 °F 94% 29.66 in 2.5 mi NNE 17.3 mph 32.2 mph 0.02 in Rain Light Rain
9:53 AM 50.0 °F 48.0 °F 93% 29.65 in 1.8 mi NE 16.1 mph 32.2 mph 0.03 in Rain Light Rain
10:53 AM 50.0 °F 48.0 °F 93% 29.67 in 1.2 mi NE 13.8 mph 25.3 mph 0.07 in Rain Light Rain
11:53 AM 50.0 °F 48.0 °F 93% 29.68 in 1.5 mi NE 21.9 mph 28.8 mph 0.05 in Rain Light Rain
12:48 PM 51.8 °F 48.2 °F 88% 29.69 in 2.5 mi NE 19.6 mph 38.0 mph 0.03 in Rain Light Rain
12:53 PM 51.1 °F 48.0 °F 89% 29.69 in 2.0 mi NNE 21.9 mph 29.9 mph 0.04 in Rain Light Rain
1:09 PM 51.8 °F 48.2 °F 88% 29.70 in 3.0 mi NNE 20.7 mph 29.9 mph 0.00 in Rain Light Rain
1:38 PM 51.8 °F 48.2 °F 88% 29.70 in 3.0 mi NNE 12.7 mph 32.2 mph N/A Rain Light Rain
1:53 PM 51.1 °F 48.0 °F 89% 29.70 in 2.5 mi NE 17.3 mph 27.6 mph 0.03 in Rain Light Rain
2:04 PM 50.0 °F 48.2 °F 94% 29.71 in 3.0 mi NE 13.8 mph 27.6 mph N/A Rain Light Rain
2:21 PM 50.0 °F 48.2 °F 94% 29.71 in 2.0 mi NE 15.0 mph 23.0 mph 0.02 in Rain Light Rain
2:53 PM 50.0 °F 48.0 °F 93% 29.71 in 1.5 mi NE 9.2 mph 20.7 mph 0.03 in Rain Light Rain
3:14 PM 50.0 °F 48.2 °F 94% 29.72 in 2.5 mi NNE 16.1 mph 28.8 mph 0.01 in Rain Light Rain
3:30 PM 50.0 °F 48.2 °F 94% 29.73 in 4.0 mi NNE 11.5 mph 23.0 mph 0.02 in Rain Light Rain
3:53 PM 50.0 °F 48.0 °F 93% 29.73 in 9.0 mi NNE 13.8 mph 20.7 mph 0.02 in Rain Light Rain
4:23 PM 50.0 °F 46.4 °F 87% 29.74 in 10.0 mi NNE 11.5 mph 23.0 mph 0.00 in Rain Light Rain
4:35 PM 50.0 °F 46.4 °F 87% 29.75 in 10.0 mi NNE 16.1 mph 24.2 mph 0.00 in Rain Light Rain
4:53 PM 51.1 °F 48.0 °F 89% 29.74 in 8.0 mi NNE 12.7 mph 20.7 mph 0.00 in Rain Light Rain
5:07 PM 51.8 °F 48.2 °F 88% 29.75 in 7.0 mi NNE 11.5 mph 25.3 mph 0.01 in Rain Light Rain
5:40 PM 51.8 °F 48.2 °F 88% 29.75 in 10.0 mi NNE 11.5 mph 17.3 mph 0.03 in Rain Light Rain
5:53 PM 51.1 °F 46.9 °F 86% 29.75 in 10.0 mi NNE 10.4 mph 21.9 mph 0.03 in Rain Light Rain
6:53 PM 50.0 °F 46.9 °F 89% 29.77 in 10.0 mi NNE 9.2 mph - 0.00 in Rain Light Rain
7:53 PM 50.0 °F 46.0 °F 86% 29.78 in 10.0 mi NNE 6.9 mph - 0.01 in Rain Light Rain
8:41 PM 48.2 °F 46.4 °F 93% 29.79 in 7.0 mi North 4.6 mph - 0.01 in Rain Light Rain
8:53 PM 48.9 °F 46.9 °F 93% 29.78 in 7.0 mi North 5.8 mph - 0.02 in Rain Light Rain
9:53 PM 48.9 °F 46.9 °F 93% 29.79 in 6.0 mi North 4.6 mph - 0.03 in Rain Light Rain
9:57 PM 48.2 °F 46.4 °F 93% 29.80 in 6.0 mi NNW 5.8 mph - 0.01 in Rain Light Rain
10:09 PM 48.2 °F 46.4 °F 93% 29.80 in 7.0 mi North 5.8 mph - 0.01 in Rain Light Rain
10:46 PM 48.2 °F 46.4 °F 93% 29.80 in 7.0 mi NNW 8.1 mph - 0.02 in Rain Light Rain
10:53 PM 48.9 °F 46.9 °F 93% 29.79 in 6.0 mi North 6.9 mph - 0.02 in Rain Light Rain
11:02 PM 48.2 °F 46.4 °F 93% 29.80 in 5.0 mi North 6.9 mph - 0.00 in Rain Light Rain
11:10 PM 48.2 °F 46.4 °F 93% 29.79 in 5.0 mi NNW 5.8 mph - 0.01 in Rain Light Rain
11:32 PM 48.2 °F 48.2 °F 100% 29.80 in 3.0 mi North 3.5 mph - 0.02 in Rain Light Rain
11:39 PM 48.2 °F 48.2 °F 100% 29.79 in 2.5 mi North 4.6 mph - 0.03 in Rain Light Rain
11:53 PM 48.9 °F 48.0 °F 97% 29.78 in 2.5 mi North 4.6 mph - 0.04 in Rain Light Rain